createdAt,value
2023-05-01T00:00:18.550Z,29
2023-05-01T00:05:17.425Z,24
2023-05-01T00:10:17.964Z,26
2023-05-01T00:15:17.447Z,27
2023-05-01T00:20:17.615Z,29
2023-05-01T00:25:18.243Z,29
2023-05-01T00:30:17.616Z,31
2023-05-01T00:35:17.854Z,31
2023-05-01T00:40:18.115Z,33
2023-05-01T00:45:17.596Z,35
2023-05-01T00:50:18.006Z,36
2023-05-01T00:55:18.260Z,37
2023-05-01T01:00:18.065Z,36
2023-05-01T01:05:17.881Z,39
2023-05-01T01:10:18.351Z,39
2023-05-01T01:15:18.013Z,38
2023-05-01T01:20:17.832Z,37
2023-05-01T01:25:17.433Z,34
2023-05-01T01:30:18.146Z,33
2023-05-01T01:35:17.683Z,38
2023-05-01T01:40:18.489Z,39
2023-05-01T01:45:19.700Z,34
2023-05-01T01:50:17.643Z,36
2023-05-01T01:55:17.645Z,35
2023-05-01T02:00:18.235Z,33
2023-05-01T02:05:17.552Z,33
2023-05-01T02:10:18.592Z,38
2023-05-01T02:15:18.048Z,34
2023-05-01T02:20:18.502Z,36
2023-05-01T02:25:17.837Z,36
2023-05-01T02:30:18.017Z,35
2023-05-01T02:35:17.657Z,37
2023-05-01T02:40:18.211Z,37
2023-05-01T02:45:17.703Z,40
2023-05-01T02:50:17.706Z,35
2023-05-01T02:55:18.523Z,38
2023-05-01T03:00:17.754Z,38
2023-05-01T03:05:17.828Z,38
2023-05-01T03:10:18.435Z,36
2023-05-01T03:15:17.808Z,36
2023-05-01T03:20:17.845Z,35
2023-05-01T03:25:18.146Z,35
2023-05-01T03:30:18.493Z,35
2023-05-01T03:35:17.777Z,37
2023-05-01T03:40:18.120Z,39
2023-05-01T03:45:19.127Z,38
2023-05-01T03:50:17.992Z,39
2023-05-01T03:55:17.971Z,38
2023-05-01T04:00:17.434Z,35
2023-05-01T04:05:17.370Z,36
2023-05-01T04:10:17.529Z,37
2023-05-01T04:15:17.251Z,37
2023-05-01T04:20:17.533Z,36
2023-05-01T04:25:17.444Z,40
2023-05-01T04:30:17.372Z,37
2023-05-01T04:35:17.438Z,37
2023-05-01T04:40:17.902Z,36
2023-05-01T04:45:17.265Z,37
2023-05-01T04:50:17.375Z,37
2023-05-01T04:55:17.334Z,38
2023-05-01T05:00:17.381Z,41
2023-05-01T05:05:19.121Z,38
2023-05-01T05:10:17.520Z,38
2023-05-01T05:15:17.436Z,40
2023-05-01T05:20:17.388Z,42
2023-05-01T05:25:17.597Z,39
2023-05-01T05:30:17.705Z,42
2023-05-01T05:35:17.276Z,41
2023-05-01T05:40:17.483Z,47
2023-05-01T05:45:19.343Z,41
2023-05-01T05:50:17.498Z,62
2023-05-01T05:55:17.534Z,63
2023-05-01T06:00:17.518Z,38
2023-05-01T06:05:17.468Z,40
2023-05-01T06:10:17.824Z,40
2023-05-01T06:15:17.533Z,39
2023-05-01T06:20:17.829Z,39
2023-05-01T06:25:17.542Z,40
2023-05-01T06:30:17.604Z,38
2023-05-01T06:35:17.789Z,37
2023-05-01T06:40:18.342Z,35
2023-05-01T06:45:17.659Z,36
2023-05-01T06:50:17.663Z,36
2023-05-01T06:55:17.795Z,36
2023-05-01T07:00:17.578Z,37
2023-05-01T07:05:17.701Z,36
2023-05-01T07:10:17.886Z,34
2023-05-01T07:15:17.475Z,36
2023-05-01T07:20:17.736Z,33
2023-05-01T07:25:17.827Z,31
2023-05-01T07:30:18.152Z,31
2023-05-01T07:35:18.115Z,30
2023-05-01T07:40:21.292Z,33
2023-05-01T07:45:18.855Z,30
2023-05-01T07:50:17.546Z,33
2023-05-01T07:55:17.569Z,33
2023-05-01T08:00:17.643Z,34
2023-05-01T08:05:18.105Z,34
2023-05-01T08:10:17.724Z,33
2023-05-01T08:15:17.648Z,35
2023-05-01T08:20:18.090Z,34
2023-05-01T08:25:17.766Z,31
2023-05-01T08:30:17.734Z,29
2023-05-01T08:35:18.224Z,29
2023-05-01T08:40:17.731Z,30
2023-05-01T08:45:17.853Z,33
2023-05-01T08:50:18.244Z,32
2023-05-01T08:55:18.569Z,33
2023-05-01T09:00:17.694Z,35
2023-05-01T09:05:17.811Z,31
2023-05-01T09:10:18.450Z,30
2023-05-01T09:15:18.557Z,31
2023-05-01T09:20:17.739Z,28
2023-05-01T09:25:17.682Z,27
2023-05-01T09:30:17.728Z,24
2023-05-01T09:35:17.804Z,24
2023-05-01T09:40:18.828Z,25
2023-05-01T09:45:18.934Z,23
2023-05-01T09:50:17.833Z,22
2023-05-01T09:55:18.071Z,22
2023-05-01T10:00:18.181Z,21
2023-05-01T10:05:17.592Z,22
2023-05-01T10:10:18.724Z,20
2023-05-01T10:15:25.382Z,20
2023-05-01T10:20:17.847Z,20
2023-05-01T10:25:19.914Z,20
2023-05-01T10:30:18.040Z,20
2023-05-01T10:35:18.046Z,21
2023-05-01T10:40:18.008Z,23
2023-05-01T10:45:17.828Z,24
2023-05-01T10:50:18.356Z,24
2023-05-01T10:55:18.173Z,23
2023-05-01T11:00:17.846Z,22
2023-05-01T11:05:23.705Z,23
2023-05-01T11:10:18.549Z,26
2023-05-01T11:15:17.673Z,31
2023-05-01T11:20:17.830Z,27
2023-05-01T11:25:18.705Z,29
2023-05-01T11:30:18.018Z,29
2023-05-01T11:35:17.760Z,28
2023-05-01T11:40:18.085Z,28
2023-05-01T11:45:19.009Z,28
2023-05-01T11:50:17.769Z,28
2023-05-01T11:55:18.122Z,26
2023-05-01T12:00:18.435Z,26
2023-05-01T12:05:17.834Z,27
2023-05-01T12:10:18.116Z,27
2023-05-01T12:15:17.663Z,24
2023-05-01T12:20:18.383Z,25
2023-05-01T12:25:17.994Z,27
2023-05-01T12:30:18.221Z,28
2023-05-01T12:35:18.229Z,29
2023-05-01T12:40:19.105Z,28
2023-05-01T12:45:18.583Z,27
2023-05-01T12:50:18.043Z,27
2023-05-01T12:55:17.967Z,28
2023-05-01T13:00:17.826Z,28
2023-05-01T13:05:17.905Z,28
2023-05-01T13:10:18.526Z,29
2023-05-01T13:15:17.872Z,30
2023-05-01T13:20:18.229Z,31
2023-05-01T13:25:18.032Z,27
2023-05-01T13:30:18.431Z,24
2023-05-01T13:35:17.852Z,25
2023-05-01T13:40:18.358Z,23
2023-05-01T13:45:19.748Z,24
2023-05-01T13:50:18.366Z,25
2023-05-01T13:55:18.683Z,28
2023-05-01T14:00:18.356Z,30
2023-05-01T14:05:17.830Z,32
2023-05-01T14:10:18.451Z,35
2023-05-01T14:15:18.118Z,34
2023-05-01T14:20:18.338Z,32
2023-05-01T14:25:18.168Z,34
2023-05-01T14:30:18.316Z,34
2023-05-01T14:35:18.235Z,31
2023-05-01T14:40:18.690Z,29
2023-05-01T14:45:18.163Z,25
2023-05-01T14:50:18.661Z,30
2023-05-01T14:55:18.541Z,33
2023-05-01T15:00:18.028Z,27
2023-05-01T15:05:18.344Z,27
2023-05-01T15:10:19.201Z,27
2023-05-01T15:15:18.080Z,24
2023-05-01T15:20:18.364Z,29
2023-05-01T15:25:18.720Z,27
2023-05-01T15:30:18.826Z,24
2023-05-01T15:35:18.414Z,32
2023-05-01T15:45:19.213Z,25
2023-05-01T15:50:18.406Z,29
2023-05-01T15:55:18.151Z,25
2023-05-01T16:00:18.462Z,26
2023-05-01T16:05:19.194Z,24
2023-05-01T16:10:18.644Z,27
2023-05-01T16:15:18.459Z,27
2023-05-01T16:20:18.552Z,24
2023-05-01T16:25:19.290Z,24
2023-05-01T16:30:18.480Z,23
2023-05-01T16:35:18.580Z,23
2023-05-01T16:40:18.898Z,19
2023-05-01T16:45:18.784Z,21
2023-05-01T16:50:18.642Z,20
2023-05-01T16:55:17.402Z,20
2023-05-01T17:00:17.322Z,18
2023-05-01T17:05:17.308Z,16
2023-05-01T17:10:17.463Z,16
2023-05-01T17:15:17.513Z,18
2023-05-01T17:20:17.460Z,17
2023-05-01T17:25:17.367Z,16
2023-05-01T17:30:17.206Z,18
2023-05-01T17:35:17.358Z,15
2023-05-01T17:40:17.580Z,18
2023-05-01T17:45:19.096Z,17
2023-05-01T17:50:17.449Z,15
2023-05-01T17:55:18.505Z,15
2023-05-01T18:00:17.479Z,16
2023-05-01T18:05:17.993Z,19
2023-05-01T18:10:17.485Z,16
2023-05-01T18:15:22.067Z,15
2023-05-01T18:20:17.505Z,15
2023-05-01T18:25:17.331Z,15
2023-05-01T18:30:17.216Z,17
2023-05-01T18:35:17.199Z,16
2023-05-01T18:40:17.375Z,17
2023-05-01T18:45:17.144Z,16
2023-05-01T18:50:17.284Z,14
2023-05-01T18:55:18.891Z,13
2023-05-01T19:00:17.321Z,14
2023-05-01T19:05:17.483Z,13
2023-05-01T19:10:17.588Z,12
2023-05-01T19:15:17.615Z,11
2023-05-01T19:20:17.361Z,10
2023-05-01T19:25:17.339Z,10
2023-05-01T19:30:17.666Z,10
2023-05-01T19:35:17.249Z,11
2023-05-01T19:40:17.514Z,15
2023-05-01T19:45:18.727Z,24
2023-05-01T19:50:17.435Z,25
2023-05-01T19:55:17.460Z,22
2023-05-01T20:00:17.455Z,19
2023-05-01T20:05:18.338Z,20
2023-05-01T20:10:18.205Z,17
2023-05-01T20:15:17.317Z,15
2023-05-01T20:20:18.586Z,14
2023-05-01T20:25:18.683Z,15
2023-05-01T20:30:18.100Z,16
2023-05-01T20:35:17.900Z,19
2023-05-01T20:40:18.579Z,18
2023-05-01T20:45:17.828Z,19
2023-05-01T20:50:17.883Z,17
2023-05-01T20:55:18.218Z,21
2023-05-01T21:00:17.878Z,21
2023-05-01T21:05:18.242Z,22
2023-05-01T21:10:18.121Z,21
2023-05-01T21:15:18.657Z,19
2023-05-01T21:20:18.270Z,24
2023-05-01T21:25:18.529Z,25
2023-05-01T21:30:18.298Z,25
2023-05-01T21:35:20.049Z,29
2023-05-01T21:40:18.271Z,28
2023-05-01T21:45:19.704Z,27
2023-05-01T21:50:18.233Z,25
2023-05-01T21:55:18.436Z,25
2023-05-01T22:00:18.746Z,31
2023-05-01T22:05:18.368Z,29
2023-05-01T22:10:18.327Z,28
2023-05-01T22:15:18.249Z,28
2023-05-01T22:20:18.625Z,27
2023-05-01T22:25:18.780Z,25
2023-05-01T22:30:18.105Z,26
2023-05-01T22:35:18.414Z,26
2023-05-01T22:40:19.001Z,25
2023-05-01T22:45:18.683Z,27
2023-05-01T22:50:18.252Z,26
2023-05-01T22:55:18.740Z,23
2023-05-01T23:00:18.426Z,23
2023-05-01T23:05:18.541Z,23
2023-05-01T23:10:18.492Z,24
2023-05-01T23:15:18.492Z,27
2023-05-01T23:20:18.584Z,30
2023-05-01T23:25:18.445Z,30
2023-05-01T23:30:18.876Z,28
2023-05-01T23:35:18.684Z,27
2023-05-01T23:40:18.589Z,26
2023-05-01T23:45:19.424Z,26
2023-05-01T23:50:18.581Z,29
2023-05-01T23:55:19.040Z,28
